sensor_id;sensor_type;location;lat;lon;timestamp;P1;durP1;ratioP1;P2;durP2;ratioP2
21192;SDS011;10754;51.106;7.164;2022-11-04T00:01:52;0.80;;;0.40;;
21192;SDS011;10754;51.106;7.164;2022-11-04T00:04:19;0.80;;;0.35;;
21192;SDS011;10754;51.106;7.164;2022-11-04T00:06:46;0.40;;;0.30;;
21192;SDS011;10754;51.106;7.164;2022-11-04T00:09:22;1.23;;;0.60;;
21192;SDS011;10754;51.106;7.164;2022-11-04T00:11:50;0.68;;;0.60;;
21192;SDS011;10754;51.106;7.164;2022-11-04T00:14:35;0.40;;;0.40;;
21192;SDS011;10754;51.106;7.164;2022-11-04T00:17:01;0.82;;;0.40;;
21192;SDS011;10754;51.106;7.164;2022-11-04T00:19:46;1.90;;;0.60;;
21192;SDS011;10754;51.106;7.164;2022-11-04T00:22:33;0.55;;;0.30;;
21192;SDS011;10754;51.106;7.164;2022-11-04T00:25:17;0.47;;;0.47;;
21192;SDS011;10754;51.106;7.164;2022-11-04T00:28:02;0.50;;;0.40;;
21192;SDS011;10754;51.106;7.164;2022-11-04T00:31:07;0.40;;;0.30;;
21192;SDS011;10754;51.106;7.164;2022-11-04T00:33:52;0.85;;;0.40;;
21192;SDS011;10754;51.106;7.164;2022-11-04T00:36:19;0.50;;;0.38;;
21192;SDS011;10754;51.106;7.164;2022-11-04T00:38:46;0.55;;;0.40;;
21192;SDS011;10754;51.106;7.164;2022-11-04T00:41:12;1.30;;;0.90;;
21192;SDS011;10754;51.106;7.164;2022-11-04T00:43:50;1.38;;;0.63;;
21192;SDS011;10754;51.106;7.164;2022-11-04T00:46:19;1.00;;;0.68;;
21192;SDS011;10754;51.106;7.164;2022-11-04T00:48:45;1.13;;;0.55;;
21192;SDS011;10754;51.106;7.164;2022-11-04T00:51:12;0.60;;;0.50;;
21192;SDS011;10754;51.106;7.164;2022-11-04T00:53:37;0.88;;;0.60;;
21192;SDS011;10754;51.106;7.164;2022-11-04T00:56:03;1.10;;;0.57;;
21192;SDS011;10754;51.106;7.164;2022-11-04T00:58:28;0.80;;;0.68;;
21192;SDS011;10754;51.106;7.164;2022-11-04T01:00:54;0.73;;;0.70;;
21192;SDS011;10754;51.106;7.164;2022-11-04T01:03:19;0.73;;;0.60;;
21192;SDS011;10754;51.106;7.164;2022-11-04T01:05:45;0.52;;;0.50;;
21192;SDS011;10754;51.106;7.164;2022-11-04T01:08:10;0.75;;;0.52;;
21192;SDS011;10754;51.106;7.164;2022-11-04T01:10:36;0.60;;;0.60;;
21192;SDS011;10754;51.106;7.164;2022-11-04T01:13:08;1.17;;;0.70;;
21192;SDS011;10754;51.106;7.164;2022-11-04T01:15:35;0.98;;;0.60;;
21192;SDS011;10754;51.106;7.164;2022-11-04T01:18:01;1.10;;;0.68;;
21192;SDS011;10754;51.106;7.164;2022-11-04T01:20:27;1.98;;;0.80;;
21192;SDS011;10754;51.106;7.164;2022-11-04T01:22:52;1.15;;;0.65;;
21192;SDS011;10754;51.106;7.164;2022-11-04T01:25:18;0.95;;;0.88;;
21192;SDS011;10754;51.106;7.164;2022-11-04T01:27:43;1.30;;;0.80;;
21192;SDS011;10754;51.106;7.164;2022-11-04T01:30:09;0.73;;;0.73;;
21192;SDS011;10754;51.106;7.164;2022-11-04T01:32:35;0.85;;;0.80;;
21192;SDS011;10754;51.106;7.164;2022-11-04T01:35:00;1.27;;;0.90;;
21192;SDS011;10754;51.106;7.164;2022-11-04T01:37:26;1.23;;;0.60;;
21192;SDS011;10754;51.106;7.164;2022-11-04T01:39:51;1.23;;;0.80;;
21192;SDS011;10754;51.106;7.164;2022-11-04T01:42:19;1.17;;;0.77;;
21192;SDS011;10754;51.106;7.164;2022-11-04T01:44:50;0.70;;;0.70;;
21192;SDS011;10754;51.106;7.164;2022-11-04T01:50:04;1.67;;;0.90;;
21192;SDS011;10754;51.106;7.164;2022-11-04T01:52:39;1.35;;;0.93;;
21192;SDS011;10754;51.106;7.164;2022-11-04T01:55:11;1.63;;;0.70;;
21192;SDS011;10754;51.106;7.164;2022-11-04T01:57:41;2.42;;;1.08;;
21192;SDS011;10754;51.106;7.164;2022-11-04T02:00:11;2.17;;;0.80;;
21192;SDS011;10754;51.106;7.164;2022-11-04T02:02:39;1.67;;;0.80;;
21192;SDS011;10754;51.106;7.164;2022-11-04T02:05:28;4.53;;;1.00;;
21192;SDS011;10754;51.106;7.164;2022-11-04T02:07:55;2.10;;;0.70;;
21192;SDS011;10754;51.106;7.164;2022-11-04T02:10:25;2.67;;;0.60;;
21192;SDS011;10754;51.106;7.164;2022-11-04T02:12:53;2.22;;;0.88;;
21192;SDS011;10754;51.106;7.164;2022-11-04T02:18:04;2.38;;;0.75;;
21192;SDS011;10754;51.106;7.164;2022-11-04T02:20:59;1.58;;;0.82;;
21192;SDS011;10754;51.106;7.164;2022-11-04T02:29:31;1.13;;;0.40;;
21192;SDS011;10754;51.106;7.164;2022-11-04T02:37:30;2.47;;;0.50;;
21192;SDS011;10754;51.106;7.164;2022-11-04T02:42:54;1.52;;;0.70;;
21192;SDS011;10754;51.106;7.164;2022-11-04T02:45:45;2.10;;;0.57;;
21192;SDS011;10754;51.106;7.164;2022-11-04T02:48:17;3.05;;;0.90;;
21192;SDS011;10754;51.106;7.164;2022-11-04T02:51:03;2.33;;;0.55;;
21192;SDS011;10754;51.106;7.164;2022-11-04T02:54:00;0.88;;;0.50;;
21192;SDS011;10754;51.106;7.164;2022-11-04T02:56:44;3.10;;;0.80;;
21192;SDS011;10754;51.106;7.164;2022-11-04T02:59:15;3.42;;;1.30;;
21192;SDS011;10754;51.106;7.164;2022-11-04T03:02:02;2.30;;;0.68;;
21192;SDS011;10754;51.106;7.164;2022-11-04T03:04:33;0.90;;;0.50;;
21192;SDS011;10754;51.106;7.164;2022-11-04T03:07:02;1.77;;;0.60;;
21192;SDS011;10754;51.106;7.164;2022-11-04T03:09:31;0.98;;;0.50;;
21192;SDS011;10754;51.106;7.164;2022-11-04T03:12:01;1.23;;;0.60;;
21192;SDS011;10754;51.106;7.164;2022-11-04T03:14:34;1.55;;;0.65;;
21192;SDS011;10754;51.106;7.164;2022-11-04T03:17:08;1.88;;;0.75;;
21192;SDS011;10754;51.106;7.164;2022-11-04T03:19:46;2.05;;;0.80;;
21192;SDS011;10754;51.106;7.164;2022-11-04T03:22:18;1.33;;;0.73;;
21192;SDS011;10754;51.106;7.164;2022-11-04T03:24:47;2.80;;;0.85;;
21192;SDS011;10754;51.106;7.164;2022-11-04T03:27:24;3.63;;;0.82;;
21192;SDS011;10754;51.106;7.164;2022-11-04T03:32:29;0.88;;;0.50;;
21192;SDS011;10754;51.106;7.164;2022-11-04T03:35:01;3.03;;;0.50;;
21192;SDS011;10754;51.106;7.164;2022-11-04T03:37:26;1.45;;;0.45;;
21192;SDS011;10754;51.106;7.164;2022-11-04T03:39:52;2.83;;;0.88;;
21192;SDS011;10754;51.106;7.164;2022-11-04T03:42:18;2.33;;;0.50;;
21192;SDS011;10754;51.106;7.164;2022-11-04T03:44:54;1.80;;;0.63;;
21192;SDS011;10754;51.106;7.164;2022-11-04T03:47:21;2.13;;;0.88;;
21192;SDS011;10754;51.106;7.164;2022-11-04T03:49:48;3.05;;;0.45;;
21192;SDS011;10754;51.106;7.164;2022-11-04T03:52:18;1.65;;;0.63;;
21192;SDS011;10754;51.106;7.164;2022-11-04T03:54:45;4.13;;;0.88;;
21192;SDS011;10754;51.106;7.164;2022-11-04T04:05:10;2.40;;;0.50;;
21192;SDS011;10754;51.106;7.164;2022-11-04T04:07:41;2.53;;;0.80;;
21192;SDS011;10754;51.106;7.164;2022-11-04T04:10:28;0.82;;;0.65;;
21192;SDS011;10754;51.106;7.164;2022-11-04T04:13:18;2.50;;;0.60;;
21192;SDS011;10754;51.106;7.164;2022-11-04T04:15:57;2.60;;;0.57;;
21192;SDS011;10754;51.106;7.164;2022-11-04T04:18:54;1.77;;;0.65;;
21192;SDS011;10754;51.106;7.164;2022-11-04T04:22:28;2.80;;;0.85;;
21192;SDS011;10754;51.106;7.164;2022-11-04T04:24:28;2.83;;;0.73;;
21192;SDS011;10754;51.106;7.164;2022-11-04T04:27:18;2.95;;;0.70;;
21192;SDS011;10754;51.106;7.164;2022-11-04T04:30:07;2.03;;;1.02;;
21192;SDS011;10754;51.106;7.164;2022-11-04T04:32:36;1.80;;;0.70;;
21192;SDS011;10754;51.106;7.164;2022-11-04T04:35:05;1.77;;;0.60;;
21192;SDS011;10754;51.106;7.164;2022-11-04T04:37:51;2.20;;;0.80;;
21192;SDS011;10754;51.106;7.164;2022-11-04T04:40:21;3.55;;;0.80;;
21192;SDS011;10754;51.106;7.164;2022-11-04T04:43:13;1.23;;;0.52;;
21192;SDS011;10754;51.106;7.164;2022-11-04T04:45:58;1.48;;;0.50;;
21192;SDS011;10754;51.106;7.164;2022-11-04T04:48:25;2.88;;;0.75;;
21192;SDS011;10754;51.106;7.164;2022-11-04T04:50:51;1.63;;;0.65;;
21192;SDS011;10754;51.106;7.164;2022-11-04T04:53:21;1.77;;;0.82;;
21192;SDS011;10754;51.106;7.164;2022-11-04T04:55:47;1.55;;;0.70;;
21192;SDS011;10754;51.106;7.164;2022-11-04T04:58:12;1.52;;;0.70;;
21192;SDS011;10754;51.106;7.164;2022-11-04T05:00:38;2.03;;;0.60;;
21192;SDS011;10754;51.106;7.164;2022-11-04T05:03:03;1.65;;;0.75;;
21192;SDS011;10754;51.106;7.164;2022-11-04T05:05:29;2.35;;;0.70;;
21192;SDS011;10754;51.106;7.164;2022-11-04T05:07:54;1.48;;;0.50;;
21192;SDS011;10754;51.106;7.164;2022-11-04T05:10:20;3.63;;;0.75;;
21192;SDS011;10754;51.106;7.164;2022-11-04T05:12:45;3.35;;;0.85;;
21192;SDS011;10754;51.106;7.164;2022-11-04T05:15:29;2.47;;;0.97;;
21192;SDS011;10754;51.106;7.164;2022-11-04T05:17:59;2.95;;;0.70;;
21192;SDS011;10754;51.106;7.164;2022-11-04T05:20:25;1.35;;;0.98;;
21192;SDS011;10754;51.106;7.164;2022-11-04T05:22:53;3.17;;;0.90;;
21192;SDS011;10754;51.106;7.164;2022-11-04T05:25:18;2.55;;;1.10;;
21192;SDS011;10754;51.106;7.164;2022-11-04T05:27:44;2.72;;;0.80;;
21192;SDS011;10754;51.106;7.164;2022-11-04T05:30:09;1.63;;;0.80;;
21192;SDS011;10754;51.106;7.164;2022-11-04T05:32:35;2.20;;;0.77;;
21192;SDS011;10754;51.106;7.164;2022-11-04T05:35:01;3.80;;;1.00;;
21192;SDS011;10754;51.106;7.164;2022-11-04T05:37:27;2.05;;;1.10;;
21192;SDS011;10754;51.106;7.164;2022-11-04T05:39:52;2.53;;;0.90;;
21192;SDS011;10754;51.106;7.164;2022-11-04T05:42:18;2.03;;;1.13;;
21192;SDS011;10754;51.106;7.164;2022-11-04T05:44:43;2.87;;;0.97;;
21192;SDS011;10754;51.106;7.164;2022-11-04T05:47:09;1.75;;;1.00;;
21192;SDS011;10754;51.106;7.164;2022-11-04T05:49:34;3.38;;;0.93;;
21192;SDS011;10754;51.106;7.164;2022-11-04T05:52:00;2.83;;;1.10;;
21192;SDS011;10754;51.106;7.164;2022-11-04T05:54:25;3.20;;;0.93;;
21192;SDS011;10754;51.106;7.164;2022-11-04T05:56:51;2.97;;;1.10;;
21192;SDS011;10754;51.106;7.164;2022-11-04T05:59:17;2.03;;;0.70;;
21192;SDS011;10754;51.106;7.164;2022-11-04T06:01:42;2.55;;;0.90;;
21192;SDS011;10754;51.106;7.164;2022-11-04T06:04:12;1.52;;;0.80;;
21192;SDS011;10754;51.106;7.164;2022-11-04T06:06:39;3.55;;;1.00;;
21192;SDS011;10754;51.106;7.164;2022-11-04T06:09:05;5.07;;;1.30;;
21192;SDS011;10754;51.106;7.164;2022-11-04T06:11:33;2.47;;;0.90;;
21192;SDS011;10754;51.106;7.164;2022-11-04T06:13:59;2.67;;;1.00;;
21192;SDS011;10754;51.106;7.164;2022-11-04T06:16:25;3.13;;;1.00;;
21192;SDS011;10754;51.106;7.164;2022-11-04T06:18:51;4.07;;;1.42;;
21192;SDS011;10754;51.106;7.164;2022-11-04T06:21:18;3.92;;;1.40;;
21192;SDS011;10754;51.106;7.164;2022-11-04T06:23:55;2.85;;;0.80;;
21192;SDS011;10754;51.106;7.164;2022-11-04T06:26:22;1.98;;;0.90;;
21192;SDS011;10754;51.106;7.164;2022-11-04T06:28:49;1.92;;;0.98;;
21192;SDS011;10754;51.106;7.164;2022-11-04T06:31:15;1.52;;;0.80;;
21192;SDS011;10754;51.106;7.164;2022-11-04T06:33:42;2.85;;;1.05;;
21192;SDS011;10754;51.106;7.164;2022-11-04T06:36:10;2.87;;;0.90;;
21192;SDS011;10754;51.106;7.164;2022-11-04T06:38:37;2.35;;;1.00;;
21192;SDS011;10754;51.106;7.164;2022-11-04T06:41:03;2.38;;;1.10;;
21192;SDS011;10754;51.106;7.164;2022-11-04T06:43:30;2.20;;;1.08;;
21192;SDS011;10754;51.106;7.164;2022-11-04T06:45:56;2.40;;;0.95;;
21192;SDS011;10754;51.106;7.164;2022-11-04T06:48:22;1.80;;;0.95;;
21192;SDS011;10754;51.106;7.164;2022-11-04T06:50:48;1.67;;;0.73;;
21192;SDS011;10754;51.106;7.164;2022-11-04T06:53:14;2.25;;;0.85;;
21192;SDS011;10754;51.106;7.164;2022-11-04T06:55:39;2.03;;;0.90;;
21192;SDS011;10754;51.106;7.164;2022-11-04T06:58:05;3.28;;;1.20;;
21192;SDS011;10754;51.106;7.164;2022-11-04T07:00:31;2.72;;;1.30;;
21192;SDS011;10754;51.106;7.164;2022-11-04T07:02:56;3.90;;;1.40;;
21192;SDS011;10754;51.106;7.164;2022-11-04T07:05:22;3.42;;;1.52;;
21192;SDS011;10754;51.106;7.164;2022-11-04T07:07:48;2.92;;;1.17;;
21192;SDS011;10754;51.106;7.164;2022-11-04T07:10:13;2.22;;;1.08;;
21192;SDS011;10754;51.106;7.164;2022-11-04T07:12:39;1.52;;;0.77;;
21192;SDS011;10754;51.106;7.164;2022-11-04T07:15:05;3.33;;;1.55;;
21192;SDS011;10754;51.106;7.164;2022-11-04T07:17:30;2.47;;;1.08;;
21192;SDS011;10754;51.106;7.164;2022-11-04T07:19:56;2.85;;;1.15;;
21192;SDS011;10754;51.106;7.164;2022-11-04T07:22:21;2.92;;;1.55;;
21192;SDS011;10754;51.106;7.164;2022-11-04T07:24:47;2.88;;;0.80;;
21192;SDS011;10754;51.106;7.164;2022-11-04T07:27:13;2.22;;;0.90;;
21192;SDS011;10754;51.106;7.164;2022-11-04T07:29:39;2.65;;;0.80;;
21192;SDS011;10754;51.106;7.164;2022-11-04T07:32:04;3.17;;;0.85;;
21192;SDS011;10754;51.106;7.164;2022-11-04T07:34:30;4.37;;;1.00;;
21192;SDS011;10754;51.106;7.164;2022-11-04T07:36:55;5.38;;;1.15;;
21192;SDS011;10754;51.106;7.164;2022-11-04T07:39:21;2.60;;;0.90;;
21192;SDS011;10754;51.106;7.164;2022-11-04T07:41:47;3.57;;;1.20;;
21192;SDS011;10754;51.106;7.164;2022-11-04T07:44:12;2.22;;;0.70;;
21192;SDS011;10754;51.106;7.164;2022-11-04T07:46:38;4.10;;;1.35;;
21192;SDS011;10754;51.106;7.164;2022-11-04T07:49:03;2.63;;;1.10;;
21192;SDS011;10754;51.106;7.164;2022-11-04T07:51:29;2.72;;;0.95;;
21192;SDS011;10754;51.106;7.164;2022-11-04T07:53:56;3.08;;;1.13;;
21192;SDS011;10754;51.106;7.164;2022-11-04T07:56:22;3.35;;;1.00;;
21192;SDS011;10754;51.106;7.164;2022-11-04T07:58:48;1.67;;;0.73;;
21192;SDS011;10754;51.106;7.164;2022-11-04T08:01:14;3.35;;;1.10;;
21192;SDS011;10754;51.106;7.164;2022-11-04T08:03:42;3.90;;;1.33;;
21192;SDS011;10754;51.106;7.164;2022-11-04T08:06:09;3.88;;;0.93;;
21192;SDS011;10754;51.106;7.164;2022-11-04T08:08:35;1.43;;;0.70;;
21192;SDS011;10754;51.106;7.164;2022-11-04T08:11:08;3.08;;;0.93;;
21192;SDS011;10754;51.106;7.164;2022-11-04T08:13:36;1.65;;;0.55;;
21192;SDS011;10754;51.106;7.164;2022-11-04T08:16:12;2.08;;;0.77;;
21192;SDS011;10754;51.106;7.164;2022-11-04T08:18:40;2.92;;;1.10;;
21192;SDS011;10754;51.106;7.164;2022-11-04T08:21:07;1.13;;;0.80;;
21192;SDS011;10754;51.106;7.164;2022-11-04T08:23:33;2.33;;;0.97;;
21192;SDS011;10754;51.106;7.164;2022-11-04T08:25:59;2.10;;;1.08;;
21192;SDS011;10754;51.106;7.164;2022-11-04T08:28:25;1.73;;;1.00;;
21192;SDS011;10754;51.106;7.164;2022-11-04T08:30:54;3.00;;;0.83;;
21192;SDS011;10754;51.106;7.164;2022-11-04T08:33:26;4.20;;;1.65;;
21192;SDS011;10754;51.106;7.164;2022-11-04T08:35:53;3.75;;;1.13;;
21192;SDS011;10754;51.106;7.164;2022-11-04T08:38:20;2.88;;;1.05;;
21192;SDS011;10754;51.106;7.164;2022-11-04T08:40:45;2.17;;;0.80;;
21192;SDS011;10754;51.106;7.164;2022-11-04T08:43:11;2.20;;;1.17;;
21192;SDS011;10754;51.106;7.164;2022-11-04T08:45:44;3.00;;;0.90;;
21192;SDS011;10754;51.106;7.164;2022-11-04T08:48:10;3.03;;;1.00;;
21192;SDS011;10754;51.106;7.164;2022-11-04T08:50:37;3.00;;;1.30;;
21192;SDS011;10754;51.106;7.164;2022-11-04T08:53:03;3.25;;;0.90;;
21192;SDS011;10754;51.106;7.164;2022-11-04T08:55:29;2.78;;;1.20;;
21192;SDS011;10754;51.106;7.164;2022-11-04T08:57:55;3.78;;;1.20;;
21192;SDS011;10754;51.106;7.164;2022-11-04T09:00:21;4.50;;;1.20;;
21192;SDS011;10754;51.106;7.164;2022-11-04T09:02:47;3.40;;;1.30;;
21192;SDS011;10754;51.106;7.164;2022-11-04T09:05:12;4.10;;;1.35;;
21192;SDS011;10754;51.106;7.164;2022-11-04T09:07:39;3.25;;;1.40;;
21192;SDS011;10754;51.106;7.164;2022-11-04T09:10:06;4.23;;;1.17;;
21192;SDS011;10754;51.106;7.164;2022-11-04T09:12:33;2.97;;;1.08;;
21192;SDS011;10754;51.106;7.164;2022-11-04T09:14:58;4.10;;;1.15;;
21192;SDS011;10754;51.106;7.164;2022-11-04T09:17:24;3.60;;;1.17;;
21192;SDS011;10754;51.106;7.164;2022-11-04T09:19:49;3.22;;;0.85;;
21192;SDS011;10754;51.106;7.164;2022-11-04T09:22:15;1.65;;;0.98;;
21192;SDS011;10754;51.106;7.164;2022-11-04T09:24:41;2.38;;;1.05;;
21192;SDS011;10754;51.106;7.164;2022-11-04T09:27:06;2.78;;;1.00;;
21192;SDS011;10754;51.106;7.164;2022-11-04T09:29:32;3.15;;;1.20;;
21192;SDS011;10754;51.106;7.164;2022-11-04T09:31:58;2.78;;;1.02;;
21192;SDS011;10754;51.106;7.164;2022-11-04T09:34:24;2.13;;;0.90;;
21192;SDS011;10754;51.106;7.164;2022-11-04T09:36:49;4.13;;;1.10;;
21192;SDS011;10754;51.106;7.164;2022-11-04T09:39:18;2.88;;;1.40;;
21192;SDS011;10754;51.106;7.164;2022-11-04T09:44:58;4.57;;;1.45;;
21192;SDS011;10754;51.106;7.164;2022-11-04T09:47:30;3.58;;;1.00;;
21192;SDS011;10754;51.106;7.164;2022-11-04T09:49:57;4.00;;;1.30;;
21192;SDS011;10754;51.106;7.164;2022-11-04T09:52:24;2.22;;;1.00;;
21192;SDS011;10754;51.106;7.164;2022-11-04T09:58:18;2.80;;;0.95;;
21192;SDS011;10754;51.106;7.164;2022-11-04T10:00:47;3.53;;;1.10;;
21192;SDS011;10754;51.106;7.164;2022-11-04T10:03:31;4.70;;;1.23;;
21192;SDS011;10754;51.106;7.164;2022-11-04T10:06:15;3.38;;;1.33;;
21192;SDS011;10754;51.106;7.164;2022-11-04T10:08:57;2.85;;;0.90;;
21192;SDS011;10754;51.106;7.164;2022-11-04T10:11:41;3.13;;;1.08;;
21192;SDS011;10754;51.106;7.164;2022-11-04T10:14:28;2.65;;;0.93;;
21192;SDS011;10754;51.106;7.164;2022-11-04T10:20:22;4.15;;;1.25;;
21192;SDS011;10754;51.106;7.164;2022-11-04T10:23:01;4.63;;;1.30;;
21192;SDS011;10754;51.106;7.164;2022-11-04T10:28:11;2.90;;;1.20;;
21192;SDS011;10754;51.106;7.164;2022-11-04T10:30:42;4.82;;;1.58;;
21192;SDS011;10754;51.106;7.164;2022-11-04T10:33:28;2.15;;;0.93;;
21192;SDS011;10754;51.106;7.164;2022-11-04T10:36:05;4.53;;;1.45;;
21192;SDS011;10754;51.106;7.164;2022-11-04T10:43:43;3.30;;;1.30;;
21192;SDS011;10754;51.106;7.164;2022-11-04T10:46:25;3.05;;;0.88;;
21192;SDS011;10754;51.106;7.164;2022-11-04T10:49:41;3.63;;;1.20;;
21192;SDS011;10754;51.106;7.164;2022-11-04T10:52:27;3.58;;;1.27;;
21192;SDS011;10754;51.106;7.164;2022-11-04T10:54:52;2.55;;;0.90;;
21192;SDS011;10754;51.106;7.164;2022-11-04T10:57:19;1.38;;;0.98;;
21192;SDS011;10754;51.106;7.164;2022-11-04T11:00:05;4.20;;;1.42;;
21192;SDS011;10754;51.106;7.164;2022-11-04T11:02:41;3.08;;;1.15;;
21192;SDS011;10754;51.106;7.164;2022-11-04T11:05:13;2.83;;;0.93;;
21192;SDS011;10754;51.106;7.164;2022-11-04T11:07:42;4.03;;;1.17;;
21192;SDS011;10754;51.106;7.164;2022-11-04T11:10:22;5.05;;;1.17;;
21192;SDS011;10754;51.106;7.164;2022-11-04T11:12:53;3.42;;;1.10;;
21192;SDS011;10754;51.106;7.164;2022-11-04T11:17:49;3.20;;;1.58;;
21192;SDS011;10754;51.106;7.164;2022-11-04T11:20:22;2.05;;;0.90;;
21192;SDS011;10754;51.106;7.164;2022-11-04T11:22:49;3.28;;;1.25;;
21192;SDS011;10754;51.106;7.164;2022-11-04T11:25:23;4.05;;;1.45;;
21192;SDS011;10754;51.106;7.164;2022-11-04T11:30:22;4.03;;;1.38;;
21192;SDS011;10754;51.106;7.164;2022-11-04T11:32:52;2.88;;;1.27;;
21192;SDS011;10754;51.106;7.164;2022-11-04T11:35:22;3.85;;;1.30;;
21192;SDS011;10754;51.106;7.164;2022-11-04T11:37:52;4.68;;;1.40;;
21192;SDS011;10754;51.106;7.164;2022-11-04T11:40:25;3.17;;;1.02;;
21192;SDS011;10754;51.106;7.164;2022-11-04T11:42:56;4.97;;;1.73;;
21192;SDS011;10754;51.106;7.164;2022-11-04T11:45:24;1.95;;;1.00;;
21192;SDS011;10754;51.106;7.164;2022-11-04T11:47:51;1.88;;;1.02;;
21192;SDS011;10754;51.106;7.164;2022-11-04T11:50:20;3.00;;;1.15;;
21192;SDS011;10754;51.106;7.164;2022-11-04T11:55:42;1.73;;;0.98;;
21192;SDS011;10754;51.106;7.164;2022-11-04T11:58:22;2.63;;;1.20;;
21192;SDS011;10754;51.106;7.164;2022-11-04T12:01:00;4.65;;;1.20;;
21192;SDS011;10754;51.106;7.164;2022-11-04T12:03:46;2.67;;;1.05;;
21192;SDS011;10754;51.106;7.164;2022-11-04T12:09:02;2.15;;;1.17;;
21192;SDS011;10754;51.106;7.164;2022-11-04T12:23:23;3.05;;;1.58;;
21192;SDS011;10754;51.106;7.164;2022-11-04T12:26:03;2.00;;;1.10;;
21192;SDS011;10754;51.106;7.164;2022-11-04T12:34:30;2.22;;;1.23;;
21192;SDS011;10754;51.106;7.164;2022-11-04T12:42:48;3.80;;;1.45;;
21192;SDS011;10754;51.106;7.164;2022-11-04T12:48:22;2.95;;;1.30;;
21192;SDS011;10754;51.106;7.164;2022-11-04T12:56:36;2.42;;;1.35;;
21192;SDS011;10754;51.106;7.164;2022-11-04T13:01:58;3.75;;;1.70;;
21192;SDS011;10754;51.106;7.164;2022-11-04T13:04:35;2.80;;;2.00;;
21192;SDS011;10754;51.106;7.164;2022-11-04T13:07:09;4.78;;;1.88;;
21192;SDS011;10754;51.106;7.164;2022-11-04T13:10:18;3.55;;;1.88;;
21192;SDS011;10754;51.106;7.164;2022-11-04T13:12:49;2.67;;;1.30;;
21192;SDS011;10754;51.106;7.164;2022-11-04T13:15:24;3.83;;;1.48;;
21192;SDS011;10754;51.106;7.164;2022-11-04T13:18:00;2.40;;;1.27;;
21192;SDS011;10754;51.106;7.164;2022-11-04T13:20:35;3.55;;;1.63;;
21192;SDS011;10754;51.106;7.164;2022-11-04T13:23:15;3.63;;;1.27;;
21192;SDS011;10754;51.106;7.164;2022-11-04T13:25:46;3.40;;;1.17;;
21192;SDS011;10754;51.106;7.164;2022-11-04T13:28:14;3.15;;;1.27;;
21192;SDS011;10754;51.106;7.164;2022-11-04T13:30:49;3.75;;;1.63;;
21192;SDS011;10754;51.106;7.164;2022-11-04T13:33:20;4.82;;;2.00;;
21192;SDS011;10754;51.106;7.164;2022-11-04T13:39:34;4.40;;;2.40;;
21192;SDS011;10754;51.106;7.164;2022-11-04T13:44:45;3.83;;;1.88;;
21192;SDS011;10754;51.106;7.164;2022-11-04T13:47:36;4.00;;;2.00;;
21192;SDS011;10754;51.106;7.164;2022-11-04T13:50:02;2.42;;;1.45;;
21192;SDS011;10754;51.106;7.164;2022-11-04T13:52:30;4.70;;;1.50;;
21192;SDS011;10754;51.106;7.164;2022-11-04T13:54:57;2.28;;;1.50;;
21192;SDS011;10754;51.106;7.164;2022-11-04T13:57:27;2.75;;;1.70;;
21192;SDS011;10754;51.106;7.164;2022-11-04T14:18:35;3.38;;;1.33;;
21192;SDS011;10754;51.106;7.164;2022-11-04T14:23:26;3.65;;;1.77;;
21192;SDS011;10754;51.106;7.164;2022-11-04T14:25:59;3.05;;;1.27;;
21192;SDS011;10754;51.106;7.164;2022-11-04T14:28:28;2.88;;;1.33;;
21192;SDS011;10754;51.106;7.164;2022-11-04T14:30:59;2.88;;;1.33;;
21192;SDS011;10754;51.106;7.164;2022-11-04T14:38:56;1.95;;;1.10;;
21192;SDS011;10754;51.106;7.164;2022-11-04T14:46:42;2.13;;;1.25;;
21192;SDS011;10754;51.106;7.164;2022-11-04T14:49:23;2.65;;;1.23;;
21192;SDS011;10754;51.106;7.164;2022-11-04T14:52:14;2.40;;;1.60;;
21192;SDS011;10754;51.106;7.164;2022-11-04T14:54:43;4.15;;;1.60;;
21192;SDS011;10754;51.106;7.164;2022-11-04T14:57:14;3.85;;;1.42;;
21192;SDS011;10754;51.106;7.164;2022-11-04T14:59:44;3.38;;;1.50;;
21192;SDS011;10754;51.106;7.164;2022-11-04T15:02:20;2.83;;;1.45;;
21192;SDS011;10754;51.106;7.164;2022-11-04T15:04:54;3.00;;;1.42;;
21192;SDS011;10754;51.106;7.164;2022-11-04T15:07:24;3.97;;;1.73;;
21192;SDS011;10754;51.106;7.164;2022-11-04T15:09:57;2.67;;;1.40;;
21192;SDS011;10754;51.106;7.164;2022-11-04T15:12:22;3.30;;;1.02;;
21192;SDS011;10754;51.106;7.164;2022-11-04T15:18:36;3.85;;;1.48;;
21192;SDS011;10754;51.106;7.164;2022-11-04T15:20:45;5.18;;;2.08;;
21192;SDS011;10754;51.106;7.164;2022-11-04T15:23:14;3.30;;;1.45;;
21192;SDS011;10754;51.106;7.164;2022-11-04T15:25:48;3.72;;;2.08;;
21192;SDS011;10754;51.106;7.164;2022-11-04T15:28:21;2.60;;;1.42;;
21192;SDS011;10754;51.106;7.164;2022-11-04T15:33:46;3.17;;;1.80;;
21192;SDS011;10754;51.106;7.164;2022-11-04T15:36:16;2.83;;;1.20;;
21192;SDS011;10754;51.106;7.164;2022-11-04T15:38:49;3.47;;;1.67;;
21192;SDS011;10754;51.106;7.164;2022-11-04T15:41:19;1.77;;;1.10;;
21192;SDS011;10754;51.106;7.164;2022-11-04T15:44:09;3.25;;;0.93;;
21192;SDS011;10754;51.106;7.164;2022-11-04T15:46:47;2.05;;;1.02;;
21192;SDS011;10754;51.106;7.164;2022-11-04T15:49:19;4.60;;;1.23;;
21192;SDS011;10754;51.106;7.164;2022-11-04T15:51:50;2.25;;;1.02;;
21192;SDS011;10754;51.106;7.164;2022-11-04T15:54:20;1.73;;;0.90;;
21192;SDS011;10754;51.106;7.164;2022-11-04T15:56:51;2.97;;;1.45;;
21192;SDS011;10754;51.106;7.164;2022-11-04T15:59:24;2.47;;;1.38;;
21192;SDS011;10754;51.106;7.164;2022-11-04T16:01:52;3.05;;;1.50;;
21192;SDS011;10754;51.106;7.164;2022-11-04T16:04:19;2.92;;;1.60;;
21192;SDS011;10754;51.106;7.164;2022-11-04T16:07:00;4.65;;;1.77;;
21192;SDS011;10754;51.106;7.164;2022-11-04T16:09:29;2.88;;;1.95;;
21192;SDS011;10754;51.106;7.164;2022-11-04T16:12:02;3.15;;;1.60;;
21192;SDS011;10754;51.106;7.164;2022-11-04T16:14:28;5.43;;;1.55;;
21192;SDS011;10754;51.106;7.164;2022-11-04T16:16:54;3.10;;;1.17;;
21192;SDS011;10754;51.106;7.164;2022-11-04T16:19:29;5.88;;;1.50;;
21192;SDS011;10754;51.106;7.164;2022-11-04T16:22:01;2.40;;;1.13;;
21192;SDS011;10754;51.106;7.164;2022-11-04T16:24:30;4.50;;;1.40;;
21192;SDS011;10754;51.106;7.164;2022-11-04T16:26:58;3.08;;;1.73;;
21192;SDS011;10754;51.106;7.164;2022-11-04T16:29:25;3.40;;;2.80;;
21192;SDS011;10754;51.106;7.164;2022-11-04T16:34:44;3.88;;;3.03;;
21192;SDS011;10754;51.106;7.164;2022-11-04T16:37:11;4.10;;;2.70;;
21192;SDS011;10754;51.106;7.164;2022-11-04T16:39:37;5.07;;;4.57;;
21192;SDS011;10754;51.106;7.164;2022-11-04T16:42:03;4.32;;;2.63;;
21192;SDS011;10754;51.106;7.164;2022-11-04T16:44:30;3.92;;;2.55;;
21192;SDS011;10754;51.106;7.164;2022-11-04T16:46:56;4.15;;;2.70;;
21192;SDS011;10754;51.106;7.164;2022-11-04T16:49:23;4.80;;;2.65;;
21192;SDS011;10754;51.106;7.164;2022-11-04T16:51:53;3.85;;;2.90;;
21192;SDS011;10754;51.106;7.164;2022-11-04T16:54:20;5.88;;;3.05;;
21192;SDS011;10754;51.106;7.164;2022-11-04T16:56:47;4.78;;;2.47;;
21192;SDS011;10754;51.106;7.164;2022-11-04T16:59:13;3.45;;;2.03;;
21192;SDS011;10754;51.106;7.164;2022-11-04T17:01:38;3.88;;;2.35;;
21192;SDS011;10754;51.106;7.164;2022-11-04T17:04:07;7.50;;;4.47;;
21192;SDS011;10754;51.106;7.164;2022-11-04T17:06:33;6.38;;;3.10;;
21192;SDS011;10754;51.106;7.164;2022-11-04T17:08:59;6.20;;;3.15;;
21192;SDS011;10754;51.106;7.164;2022-11-04T17:11:25;4.53;;;2.50;;
21192;SDS011;10754;51.106;7.164;2022-11-04T17:13:54;4.88;;;2.45;;
21192;SDS011;10754;51.106;7.164;2022-11-04T17:16:20;5.22;;;2.83;;
21192;SDS011;10754;51.106;7.164;2022-11-04T17:18:45;4.95;;;2.97;;
21192;SDS011;10754;51.106;7.164;2022-11-04T17:21:12;4.50;;;2.50;;
21192;SDS011;10754;51.106;7.164;2022-11-04T17:23:40;4.47;;;2.33;;
21192;SDS011;10754;51.106;7.164;2022-11-04T17:26:07;4.22;;;2.50;;
21192;SDS011;10754;51.106;7.164;2022-11-04T17:28:33;4.00;;;3.22;;
21192;SDS011;10754;51.106;7.164;2022-11-04T17:31:00;4.90;;;2.78;;